sensor_id;sensor_type;location;lat;lon;timestamp;temperature;humidity
3344;DHT22;1685;53.104;8.228;2023-04-03T00:09:04;1.70;99.90
3344;DHT22;1685;53.104;8.228;2023-04-03T00:11:32;1.70;99.90
3344;DHT22;1685;53.104;8.228;2023-04-03T00:13:58;1.80;99.90
3344;DHT22;1685;53.104;8.228;2023-04-03T00:16:25;1.70;99.90
3344;DHT22;1685;53.104;8.228;2023-04-03T00:18:52;1.60;99.90
3344;DHT22;1685;53.104;8.228;2023-04-03T00:26:13;1.70;99.90
3344;DHT22;1685;53.104;8.228;2023-04-03T00:28:41;1.50;99.90
3344;DHT22;1685;53.104;8.228;2023-04-03T00:36:06;1.60;99.90
3344;DHT22;1685;53.104;8.228;2023-04-03T00:41:00;1.30;99.90
3344;DHT22;1685;53.104;8.228;2023-04-03T00:43:27;1.50;99.90
3344;DHT22;1685;53.104;8.228;2023-04-03T00:45:56;1.30;99.90
3344;DHT22;1685;53.104;8.228;2023-04-03T00:48:27;1.30;99.90
3344;DHT22;1685;53.104;8.228;2023-04-03T00:50:54;1.00;99.90
3344;DHT22;1685;53.104;8.228;2023-04-03T00:53:24;1.50;99.90
3344;DHT22;1685;53.104;8.228;2023-04-03T00:55:53;1.40;99.90
3344;DHT22;1685;53.104;8.228;2023-04-03T00:58:25;1.40;99.90
3344;DHT22;1685;53.104;8.228;2023-04-03T01:00:57;1.20;99.90
3344;DHT22;1685;53.104;8.228;2023-04-03T01:03:24;1.20;99.90
3344;DHT22;1685;53.104;8.228;2023-04-03T01:08:18;0.90;99.90
3344;DHT22;1685;53.104;8.228;2023-04-03T01:13:24;0.90;99.90
3344;DHT22;1685;53.104;8.228;2023-04-03T01:15:51;1.10;99.90
3344;DHT22;1685;53.104;8.228;2023-04-03T01:18:20;0.90;99.90
3344;DHT22;1685;53.104;8.228;2023-04-03T01:21:13;0.80;99.90
3344;DHT22;1685;53.104;8.228;2023-04-03T01:23:55;0.80;99.90
3344;DHT22;1685;53.104;8.228;2023-04-03T01:26:23;0.70;99.90
3344;DHT22;1685;53.104;8.228;2023-04-03T01:28:53;0.90;99.90
3344;DHT22;1685;53.104;8.228;2023-04-03T01:31:24;0.80;99.90
3344;DHT22;1685;53.104;8.228;2023-04-03T01:33:53;0.70;99.90
3344;DHT22;1685;53.104;8.228;2023-04-03T01:36:22;0.60;99.90
3344;DHT22;1685;53.104;8.228;2023-04-03T01:43:44;0.80;99.90
3344;DHT22;1685;53.104;8.228;2023-04-03T01:46:10;0.60;99.90
3344;DHT22;1685;53.104;8.228;2023-04-03T01:48:38;0.60;99.90
3344;DHT22;1685;53.104;8.228;2023-04-03T01:51:06;0.70;99.90
3344;DHT22;1685;53.104;8.228;2023-04-03T01:53:33;0.80;99.90
3344;DHT22;1685;53.104;8.228;2023-04-03T01:55:59;0.60;99.90
3344;DHT22;1685;53.104;8.228;2023-04-03T02:05:49;0.40;99.90
3344;DHT22;1685;53.104;8.228;2023-04-03T02:08:17;0.50;99.90
3344;DHT22;1685;53.104;8.228;2023-04-03T02:18:06;0.50;99.90
3344;DHT22;1685;53.104;8.228;2023-04-03T02:20:33;0.40;99.90
3344;DHT22;1685;53.104;8.228;2023-04-03T02:25:29;0.40;99.90
3344;DHT22;1685;53.104;8.228;2023-04-03T02:27:56;0.50;99.90
3344;DHT22;1685;53.104;8.228;2023-04-03T02:35:17;0.30;99.90
3344;DHT22;1685;53.104;8.228;2023-04-03T02:42:40;0.30;99.90
3344;DHT22;1685;53.104;8.228;2023-04-03T02:45:07;0.80;99.90
3344;DHT22;1685;53.104;8.228;2023-04-03T02:47:34;0.20;99.90
3344;DHT22;1685;53.104;8.228;2023-04-03T02:52:28;0.30;99.90
3344;DHT22;1685;53.104;8.228;2023-04-03T02:57:22;0.20;99.90
3344;DHT22;1685;53.104;8.228;2023-04-03T02:59:50;0.20;99.90
3344;DHT22;1685;53.104;8.228;2023-04-03T03:07:12;0.30;99.90
3344;DHT22;1685;53.104;8.228;2023-04-03T03:12:06;0.20;99.90
3344;DHT22;1685;53.104;8.228;2023-04-03T03:14:32;0.10;99.90
3344;DHT22;1685;53.104;8.228;2023-04-03T03:17:01;-0.10;99.90
3344;DHT22;1685;53.104;8.228;2023-04-03T03:24:22;-0.10;99.90
3344;DHT22;1685;53.104;8.228;2023-04-03T03:26:49;-0.20;99.90
3344;DHT22;1685;53.104;8.228;2023-04-03T03:29:15;0.10;99.90
3344;DHT22;1685;53.104;8.228;2023-04-03T03:34:11;-0.20;99.90
3344;DHT22;1685;53.104;8.228;2023-04-03T03:36:38;-0.10;99.90
3344;DHT22;1685;53.104;8.228;2023-04-03T03:41:32;-0.10;99.90
3344;DHT22;1685;53.104;8.228;2023-04-03T03:43:59;-0.20;99.90
3344;DHT22;1685;53.104;8.228;2023-04-03T03:46:26;-0.30;99.90
3344;DHT22;1685;53.104;8.228;2023-04-03T03:48:53;-0.10;99.90
3344;DHT22;1685;53.104;8.228;2023-04-03T03:51:21;-0.20;99.90
3344;DHT22;1685;53.104;8.228;2023-04-03T03:56:15;-0.30;99.90
3344;DHT22;1685;53.104;8.228;2023-04-03T03:58:41;-0.10;99.90
3344;DHT22;1685;53.104;8.228;2023-04-03T04:06:03;-0.40;99.90
3344;DHT22;1685;53.104;8.228;2023-04-03T04:08:31;-0.30;99.90
3344;DHT22;1685;53.104;8.228;2023-04-03T04:10:58;-0.30;99.90
3344;DHT22;1685;53.104;8.228;2023-04-03T04:13:25;-0.40;99.90
3344;DHT22;1685;53.104;8.228;2023-04-03T04:15:51;-0.70;99.90
3344;DHT22;1685;53.104;8.228;2023-04-03T04:20:48;-0.50;99.90
3344;DHT22;1685;53.104;8.228;2023-04-03T04:25:44;-0.40;99.90
3344;DHT22;1685;53.104;8.228;2023-04-03T04:28:11;-0.40;99.90
3344;DHT22;1685;53.104;8.228;2023-04-03T04:30:37;-0.50;99.90
3344;DHT22;1685;53.104;8.228;2023-04-03T04:35:32;-0.40;99.90
3344;DHT22;1685;53.104;8.228;2023-04-03T04:37:59;-0.30;99.90
3344;DHT22;1685;53.104;8.228;2023-04-03T04:40:27;-0.60;99.90
3344;DHT22;1685;53.104;8.228;2023-04-03T04:42:55;-0.40;99.90
3344;DHT22;1685;53.104;8.228;2023-04-03T04:47:48;-0.20;99.90
3344;DHT22;1685;53.104;8.228;2023-04-03T04:50:17;-0.60;99.90
3344;DHT22;1685;53.104;8.228;2023-04-03T04:52:43;-0.60;99.90
3344;DHT22;1685;53.104;8.228;2023-04-03T04:55:10;-0.60;99.90
3344;DHT22;1685;53.104;8.228;2023-04-03T04:57:37;-0.70;99.90
3344;DHT22;1685;53.104;8.228;2023-04-03T05:00:09;-0.60;99.90
3344;DHT22;1685;53.104;8.228;2023-04-03T05:02:35;-0.60;99.90
3344;DHT22;1685;53.104;8.228;2023-04-03T05:05:02;-0.60;99.90
3344;DHT22;1685;53.104;8.228;2023-04-03T05:07:29;-0.70;99.90
3344;DHT22;1685;53.104;8.228;2023-04-03T05:09:56;-0.80;99.90
3344;DHT22;1685;53.104;8.228;2023-04-03T05:12:23;-0.80;99.90
3344;DHT22;1685;53.104;8.228;2023-04-03T05:14:50;-0.90;99.90
3344;DHT22;1685;53.104;8.228;2023-04-03T05:17:18;-0.70;99.90
3344;DHT22;1685;53.104;8.228;2023-04-03T05:22:12;-0.60;99.90
3344;DHT22;1685;53.104;8.228;2023-04-03T05:27:06;-0.50;99.90
3344;DHT22;1685;53.104;8.228;2023-04-03T05:29:32;-0.50;99.90
3344;DHT22;1685;53.104;8.228;2023-04-03T05:34:27;-0.40;99.90
3344;DHT22;1685;53.104;8.228;2023-04-03T05:36:54;-0.70;99.90
3344;DHT22;1685;53.104;8.228;2023-04-03T05:39:21;-0.50;99.90
3344;DHT22;1685;53.104;8.228;2023-04-03T05:46:42;-0.50;99.90
3344;DHT22;1685;53.104;8.228;2023-04-03T05:51:38;-0.40;99.90
3344;DHT22;1685;53.104;8.228;2023-04-03T05:54:09;-0.50;99.90
3344;DHT22;1685;53.104;8.228;2023-04-03T05:59:03;-0.40;99.90
3344;DHT22;1685;53.104;8.228;2023-04-03T06:03:57;-0.20;99.90
3344;DHT22;1685;53.104;8.228;2023-04-03T06:06:24;-0.30;99.90
3344;DHT22;1685;53.104;8.228;2023-04-03T06:08:52;-0.30;99.90
3344;DHT22;1685;53.104;8.228;2023-04-03T06:11:19;0.10;99.90
3344;DHT22;1685;53.104;8.228;2023-04-03T06:13:46;0.60;99.90
3344;DHT22;1685;53.104;8.228;2023-04-03T06:16:14;-0.30;99.90
3344;DHT22;1685;53.104;8.228;2023-04-03T06:18:41;0.30;99.90
3344;DHT22;1685;53.104;8.228;2023-04-03T06:21:08;0.10;99.90
3344;DHT22;1685;53.104;8.228;2023-04-03T06:23:35;0.80;99.90
3344;DHT22;1685;53.104;8.228;2023-04-03T06:26:03;0.40;99.90
3344;DHT22;1685;53.104;8.228;2023-04-03T06:30:58;0.80;99.90
3344;DHT22;1685;53.104;8.228;2023-04-03T06:33:24;1.20;99.90
3344;DHT22;1685;53.104;8.228;2023-04-03T06:35:56;1.30;99.90
3344;DHT22;1685;53.104;8.228;2023-04-03T06:40:50;2.10;99.90
3344;DHT22;1685;53.104;8.228;2023-04-03T06:43:19;2.30;99.90
3344;DHT22;1685;53.104;8.228;2023-04-03T06:48:13;2.70;99.90
3344;DHT22;1685;53.104;8.228;2023-04-03T06:55:35;3.20;99.90
3344;DHT22;1685;53.104;8.228;2023-04-03T06:58:02;3.60;99.90
3344;DHT22;1685;53.104;8.228;2023-04-03T07:00:31;3.50;99.90
3344;DHT22;1685;53.104;8.228;2023-04-03T07:02:57;4.00;99.90
3344;DHT22;1685;53.104;8.228;2023-04-03T07:12:46;4.40;99.90
3344;DHT22;1685;53.104;8.228;2023-04-03T07:17:41;4.80;99.90
3344;DHT22;1685;53.104;8.228;2023-04-03T07:20:10;4.70;99.90
3344;DHT22;1685;53.104;8.228;2023-04-03T07:22:37;4.70;99.90
3344;DHT22;1685;53.104;8.228;2023-04-03T07:25:04;4.90;99.90
3344;DHT22;1685;53.104;8.228;2023-04-03T07:27:32;4.90;99.90
3344;DHT22;1685;53.104;8.228;2023-04-03T07:29:59;5.00;99.90
3344;DHT22;1685;53.104;8.228;2023-04-03T07:32:26;5.40;99.90
3344;DHT22;1685;53.104;8.228;2023-04-03T07:34:54;5.80;99.90
3344;DHT22;1685;53.104;8.228;2023-04-03T07:39:48;5.50;99.90
3344;DHT22;1685;53.104;8.228;2023-04-03T07:52:07;6.20;99.90
3344;DHT22;1685;53.104;8.228;2023-04-03T07:57:02;6.40;99.90
3344;DHT22;1685;53.104;8.228;2023-04-03T08:09:19;6.50;99.90
3344;DHT22;1685;53.104;8.228;2023-04-03T08:21:40;7.30;99.90
3344;DHT22;1685;53.104;8.228;2023-04-03T08:26:36;7.20;98.70
3344;DHT22;1685;53.104;8.228;2023-04-03T08:36:27;7.80;97.20
3344;DHT22;1685;53.104;8.228;2023-04-03T08:38:55;8.20;99.90
3344;DHT22;1685;53.104;8.228;2023-04-03T08:41:29;8.20;99.90
3344;DHT22;1685;53.104;8.228;2023-04-03T08:44:14;8.30;96.00
3344;DHT22;1685;53.104;8.228;2023-04-03T08:47:02;8.20;94.80
3344;DHT22;1685;53.104;8.228;2023-04-03T08:49:33;8.00;95.20
3344;DHT22;1685;53.104;8.228;2023-04-03T08:52:04;8.00;95.40
3344;DHT22;1685;53.104;8.228;2023-04-03T08:54:34;8.00;99.90
3344;DHT22;1685;53.104;8.228;2023-04-03T08:57:04;8.10;94.10
3344;DHT22;1685;53.104;8.228;2023-04-03T08:59:35;8.20;93.60
3344;DHT22;1685;53.104;8.228;2023-04-03T09:02:12;8.20;99.90
3344;DHT22;1685;53.104;8.228;2023-04-03T09:09:51;8.60;99.90
3344;DHT22;1685;53.104;8.228;2023-04-03T09:12:23;8.30;98.90
3344;DHT22;1685;53.104;8.228;2023-04-03T09:15:00;8.50;91.80
3344;DHT22;1685;53.104;8.228;2023-04-03T09:17:41;8.90;92.00
3344;DHT22;1685;53.104;8.228;2023-04-03T09:20:17;9.10;92.40
3344;DHT22;1685;53.104;8.228;2023-04-03T09:25:15;9.10;90.80
3344;DHT22;1685;53.104;8.228;2023-04-03T09:30:15;9.10;90.90
3344;DHT22;1685;53.104;8.228;2023-04-03T09:32:45;8.80;92.70
3344;DHT22;1685;53.104;8.228;2023-04-03T09:35:20;8.80;91.80
3344;DHT22;1685;53.104;8.228;2023-04-03T09:37:49;9.10;90.80
3344;DHT22;1685;53.104;8.228;2023-04-03T09:40:33;9.40;99.00
3344;DHT22;1685;53.104;8.228;2023-04-03T09:43:02;9.70;89.30
3344;DHT22;1685;53.104;8.228;2023-04-03T09:45:32;9.50;88.30
3344;DHT22;1685;53.104;8.228;2023-04-03T09:48:08;9.40;99.90
3344;DHT22;1685;53.104;8.228;2023-04-03T09:50:35;9.70;89.10
3344;DHT22;1685;53.104;8.228;2023-04-03T09:53:05;10.00;88.30
3344;DHT22;1685;53.104;8.228;2023-04-03T09:55:42;9.90;85.20
3344;DHT22;1685;53.104;8.228;2023-04-03T09:58:24;10.10;89.20
3344;DHT22;1685;53.104;8.228;2023-04-03T10:00:56;10.10;84.30
3344;DHT22;1685;53.104;8.228;2023-04-03T10:03:27;9.90;84.90
3344;DHT22;1685;53.104;8.228;2023-04-03T10:08:27;10.20;83.40
3344;DHT22;1685;53.104;8.228;2023-04-03T10:11:13;10.00;97.90
3344;DHT22;1685;53.104;8.228;2023-04-03T10:13:50;10.40;96.20
3344;DHT22;1685;53.104;8.228;2023-04-03T10:16:21;10.40;82.60
3344;DHT22;1685;53.104;8.228;2023-04-03T10:18:57;10.50;84.90
3344;DHT22;1685;53.104;8.228;2023-04-03T10:21:35;10.40;83.10
3344;DHT22;1685;53.104;8.228;2023-04-03T10:24:10;10.30;83.90
3344;DHT22;1685;53.104;8.228;2023-04-03T10:26:45;10.40;96.10
3344;DHT22;1685;53.104;8.228;2023-04-03T10:29:27;10.60;98.40
3344;DHT22;1685;53.104;8.228;2023-04-03T10:32:08;10.40;84.60
3344;DHT22;1685;53.104;8.228;2023-04-03T10:34:42;10.20;80.10
3344;DHT22;1685;53.104;8.228;2023-04-03T10:37:17;10.30;79.50
3344;DHT22;1685;53.104;8.228;2023-04-03T10:39:51;10.20;79.40
3344;DHT22;1685;53.104;8.228;2023-04-03T10:42:27;10.30;81.60
3344;DHT22;1685;53.104;8.228;2023-04-03T10:45:18;10.40;96.80
3344;DHT22;1685;53.104;8.228;2023-04-03T10:47:55;10.00;79.80
3344;DHT22;1685;53.104;8.228;2023-04-03T10:50:43;10.20;96.50
3344;DHT22;1685;53.104;8.228;2023-04-03T10:53:20;10.30;81.00
3344;DHT22;1685;53.104;8.228;2023-04-03T10:55:55;10.10;80.70
3344;DHT22;1685;53.104;8.228;2023-04-03T10:58:28;10.10;80.30
3344;DHT22;1685;53.104;8.228;2023-04-03T11:01:01;9.90;78.60
3344;DHT22;1685;53.104;8.228;2023-04-03T11:03:34;9.80;95.00
3344;DHT22;1685;53.104;8.228;2023-04-03T11:06:05;9.90;80.20
3344;DHT22;1685;53.104;8.228;2023-04-03T11:08:38;9.50;78.90
3344;DHT22;1685;53.104;8.228;2023-04-03T11:11:08;9.50;79.40
3344;DHT22;1685;53.104;8.228;2023-04-03T11:13:40;9.40;80.60
3344;DHT22;1685;53.104;8.228;2023-04-03T11:18:41;9.70;82.50
3344;DHT22;1685;53.104;8.228;2023-04-03T11:21:14;9.50;81.70
3344;DHT22;1685;53.104;8.228;2023-04-03T11:23:44;9.50;81.70
3344;DHT22;1685;53.104;8.228;2023-04-03T11:26:13;9.50;81.10
3344;DHT22;1685;53.104;8.228;2023-04-03T11:31:20;9.60;96.70
3344;DHT22;1685;53.104;8.228;2023-04-03T11:33:58;9.50;82.70
3344;DHT22;1685;53.104;8.228;2023-04-03T11:36:31;9.70;83.90
3344;DHT22;1685;53.104;8.228;2023-04-03T11:39:16;9.80;81.90
3344;DHT22;1685;53.104;8.228;2023-04-03T11:44:33;9.40;82.30
3344;DHT22;1685;53.104;8.228;2023-04-03T11:47:02;9.20;84.00
3344;DHT22;1685;53.104;8.228;2023-04-03T11:49:53;9.40;84.60
3344;DHT22;1685;53.104;8.228;2023-04-03T11:52:55;9.40;94.60
3344;DHT22;1685;53.104;8.228;2023-04-03T11:55:45;9.00;93.00
3344;DHT22;1685;53.104;8.228;2023-04-03T11:58:14;9.20;81.40
3344;DHT22;1685;53.104;8.228;2023-04-03T12:01:06;9.30;80.50
3344;DHT22;1685;53.104;8.228;2023-04-03T12:03:58;9.40;95.90
3344;DHT22;1685;53.104;8.228;2023-04-03T12:10:12;9.00;94.40
3344;DHT22;1685;53.104;8.228;2023-04-03T12:21:16;9.20;81.20
3344;DHT22;1685;53.104;8.228;2023-04-03T12:23:59;9.00;96.20
3344;DHT22;1685;53.104;8.228;2023-04-03T12:26:32;8.90;81.40
3344;DHT22;1685;53.104;8.228;2023-04-03T12:29:03;8.90;81.60
3344;DHT22;1685;53.104;8.228;2023-04-03T12:31:43;8.80;80.40
3344;DHT22;1685;53.104;8.228;2023-04-03T12:34:24;8.90;94.70
3344;DHT22;1685;53.104;8.228;2023-04-03T12:37:01;8.90;93.60
3344;DHT22;1685;53.104;8.228;2023-04-03T12:39:52;9.10;83.10
3344;DHT22;1685;53.104;8.228;2023-04-03T12:42:38;9.20;81.90
3344;DHT22;1685;53.104;8.228;2023-04-03T12:45:15;9.30;82.60
3344;DHT22;1685;53.104;8.228;2023-04-03T12:47:44;9.30;83.80
3344;DHT22;1685;53.104;8.228;2023-04-03T12:50:21;9.20;81.70
3344;DHT22;1685;53.104;8.228;2023-04-03T12:52:54;9.40;94.90
3344;DHT22;1685;53.104;8.228;2023-04-03T12:57:51;9.50;94.90
3344;DHT22;1685;53.104;8.228;2023-04-03T13:00:30;9.40;94.20
3344;DHT22;1685;53.104;8.228;2023-04-03T13:02:59;9.20;96.30
3344;DHT22;1685;53.104;8.228;2023-04-03T13:05:28;9.50;82.60
3344;DHT22;1685;53.104;8.228;2023-04-03T13:07:59;9.70;82.20
3344;DHT22;1685;53.104;8.228;2023-04-03T13:12:57;9.40;81.70
3344;DHT22;1685;53.104;8.228;2023-04-03T13:15:26;9.10;80.40
3344;DHT22;1685;53.104;8.228;2023-04-03T13:20:24;9.30;83.50
3344;DHT22;1685;53.104;8.228;2023-04-03T13:22:55;9.30;82.10
3344;DHT22;1685;53.104;8.228;2023-04-03T13:25:24;9.50;81.00
3344;DHT22;1685;53.104;8.228;2023-04-03T13:30:26;9.30;83.10
3344;DHT22;1685;53.104;8.228;2023-04-03T13:35:30;9.50;97.30
3344;DHT22;1685;53.104;8.228;2023-04-03T13:37:59;9.50;83.80
3344;DHT22;1685;53.104;8.228;2023-04-03T13:43:04;9.50;94.00
3344;DHT22;1685;53.104;8.228;2023-04-03T13:45:33;9.50;95.30
3344;DHT22;1685;53.104;8.228;2023-04-03T13:48:10;9.20;94.10
3344;DHT22;1685;53.104;8.228;2023-04-03T13:50:53;9.20;81.10
3344;DHT22;1685;53.104;8.228;2023-04-03T13:55:57;9.00;95.40
3344;DHT22;1685;53.104;8.228;2023-04-03T13:58:26;9.40;82.60
3344;DHT22;1685;53.104;8.228;2023-04-03T14:00:59;9.30;81.80
3344;DHT22;1685;53.104;8.228;2023-04-03T14:03:30;9.20;82.40
3344;DHT22;1685;53.104;8.228;2023-04-03T14:18:19;9.60;81.80
3344;DHT22;1685;53.104;8.228;2023-04-03T14:28:15;9.70;80.10
3344;DHT22;1685;53.104;8.228;2023-04-03T14:30:44;9.70;82.30
3344;DHT22;1685;53.104;8.228;2023-04-03T14:33:14;9.60;93.00
3344;DHT22;1685;53.104;8.228;2023-04-03T14:35:42;9.60;82.90
3344;DHT22;1685;53.104;8.228;2023-04-03T14:38:23;9.60;80.70
3344;DHT22;1685;53.104;8.228;2023-04-03T14:48:17;9.80;83.30
3344;DHT22;1685;53.104;8.228;2023-04-03T14:50:47;9.80;81.90
3344;DHT22;1685;53.104;8.228;2023-04-03T14:53:14;9.60;83.50
3344;DHT22;1685;53.104;8.228;2023-04-03T14:55:43;9.30;85.00
3344;DHT22;1685;53.104;8.228;2023-04-03T14:58:13;9.20;86.70
3344;DHT22;1685;53.104;8.228;2023-04-03T15:03:12;8.40;87.40
3344;DHT22;1685;53.104;8.228;2023-04-03T15:08:17;8.90;90.20
3344;DHT22;1685;53.104;8.228;2023-04-03T15:25:29;9.30;90.20
3344;DHT22;1685;53.104;8.228;2023-04-03T15:27:57;9.00;90.20
3344;DHT22;1685;53.104;8.228;2023-04-03T15:42:42;8.90;91.30
3344;DHT22;1685;53.104;8.228;2023-04-03T15:45:09;8.80;98.90
3344;DHT22;1685;53.104;8.228;2023-04-03T15:50:04;8.90;91.70
3344;DHT22;1685;53.104;8.228;2023-04-03T15:54:58;9.20;99.60
3344;DHT22;1685;53.104;8.228;2023-04-03T15:57:25;8.90;99.90
3344;DHT22;1685;53.104;8.228;2023-04-03T15:59:53;8.60;92.40
3344;DHT22;1685;53.104;8.228;2023-04-03T16:17:04;8.60;93.30
3344;DHT22;1685;53.104;8.228;2023-04-03T16:21:58;8.70;98.90
3344;DHT22;1685;53.104;8.228;2023-04-03T16:34:15;8.40;93.50
3344;DHT22;1685;53.104;8.228;2023-04-03T16:50:09;8.30;99.90
3344;DHT22;1685;53.104;8.228;2023-04-03T16:55:04;8.30;99.90
3344;DHT22;1685;53.104;8.228;2023-04-03T16:57:31;7.70;99.90
3344;DHT22;1685;53.104;8.228;2023-04-03T17:02:27;8.00;94.30
3344;DHT22;1685;53.104;8.228;2023-04-03T17:04:54;8.30;99.90
3344;DHT22;1685;53.104;8.228;2023-04-03T17:07:23;8.00;99.90
3344;DHT22;1685;53.104;8.228;2023-04-03T17:12:19;7.90;95.00
3344;DHT22;1685;53.104;8.228;2023-04-03T17:14:46;7.70;99.90
3344;DHT22;1685;53.104;8.228;2023-04-03T17:19:41;7.70;95.50
3344;DHT22;1685;53.104;8.228;2023-04-03T17:22:09;7.70;99.90
3344;DHT22;1685;53.104;8.228;2023-04-03T17:27:49;7.90;99.90
3344;DHT22;1685;53.104;8.228;2023-04-03T17:35:10;7.60;99.90
3344;DHT22;1685;53.104;8.228;2023-04-03T17:40:05;7.50;99.90
3344;DHT22;1685;53.104;8.228;2023-04-03T17:48:24;7.20;98.20
3344;DHT22;1685;53.104;8.228;2023-04-03T17:50:52;7.10;99.90
3344;DHT22;1685;53.104;8.228;2023-04-03T17:55:46;7.00;99.90
3344;DHT22;1685;53.104;8.228;2023-04-03T17:58:12;7.00;99.90
3344;DHT22;1685;53.104;8.228;2023-04-03T18:03:21;7.00;99.40
3344;DHT22;1685;53.104;8.228;2023-04-03T18:05:49;6.90;99.90
3344;DHT22;1685;53.104;8.228;2023-04-03T18:13:11;6.80;99.90
3344;DHT22;1685;53.104;8.228;2023-04-03T18:23:05;6.40;99.90
3344;DHT22;1685;53.104;8.228;2023-04-03T18:25:32;6.30;99.90
3344;DHT22;1685;53.104;8.228;2023-04-03T18:28:00;6.40;99.90
3344;DHT22;1685;53.104;8.228;2023-04-03T18:30:30;6.40;99.90
3344;DHT22;1685;53.104;8.228;2023-04-03T18:40:21;6.20;99.90
3344;DHT22;1685;53.104;8.228;2023-04-03T18:45:16;6.10;99.90
3344;DHT22;1685;53.104;8.228;2023-04-03T18:52:40;5.90;99.90
3344;DHT22;1685;53.104;8.228;2023-04-03T18:55:08;5.90;99.90
3344;DHT22;1685;53.104;8.228;2023-04-03T18:57:38;6.00;99.90
3344;DHT22;1685;53.104;8.228;2023-04-03T19:00:07;5.70;99.90
3344;DHT22;1685;53.104;8.228;2023-04-03T19:08:02;5.60;99.90
3344;DHT22;1685;53.104;8.228;2023-04-03T19:10:29;5.50;99.90
3344;DHT22;1685;53.104;8.228;2023-04-03T19:12:58;5.50;99.90
3344;DHT22;1685;53.104;8.228;2023-04-03T19:15:25;5.40;99.90
3344;DHT22;1685;53.104;8.228;2023-04-03T19:17:52;5.30;99.90
3344;DHT22;1685;53.104;8.228;2023-04-03T19:25:13;5.00;99.90
3344;DHT22;1685;53.104;8.228;2023-04-03T19:30:10;5.10;99.90
3344;DHT22;1685;53.104;8.228;2023-04-03T19:35:08;5.00;99.90
3344;DHT22;1685;53.104;8.228;2023-04-03T19:40:02;4.90;99.90
3344;DHT22;1685;53.104;8.228;2023-04-03T19:48:01;4.90;99.90
3344;DHT22;1685;53.104;8.228;2023-04-03T19:50:27;4.80;99.90
3344;DHT22;1685;53.104;8.228;2023-04-03T19:58:22;4.70;99.90
3344;DHT22;1685;53.104;8.228;2023-04-03T20:00:50;4.70;99.90
3344;DHT22;1685;53.104;8.228;2023-04-03T20:18:06;4.60;99.90
3344;DHT22;1685;53.104;8.228;2023-04-03T20:20:33;4.20;99.90
3344;DHT22;1685;53.104;8.228;2023-04-03T20:36:34;4.20;99.90
3344;DHT22;1685;53.104;8.228;2023-04-03T20:43:57;4.00;99.90
3344;DHT22;1685;53.104;8.228;2023-04-03T20:51:53;4.00;99.90
3344;DHT22;1685;53.104;8.228;2023-04-03T21:01:42;3.70;99.90
3344;DHT22;1685;53.104;8.228;2023-04-03T21:04:13;3.70;99.90
3344;DHT22;1685;53.104;8.228;2023-04-03T21:21:21;3.40;99.90
3344;DHT22;1685;53.104;8.228;2023-04-03T21:23:50;3.40;99.90
3344;DHT22;1685;53.104;8.228;2023-04-03T21:26:17;3.40;99.90
3344;DHT22;1685;53.104;8.228;2023-04-03T21:28:47;3.40;99.90
3344;DHT22;1685;53.104;8.228;2023-04-03T21:31:15;3.30;99.90
3344;DHT22;1685;53.104;8.228;2023-04-03T21:33:43;3.30;99.90
3344;DHT22;1685;53.104;8.228;2023-04-03T21:38:37;3.30;99.90
3344;DHT22;1685;53.104;8.228;2023-04-03T21:41:04;3.20;99.90
3344;DHT22;1685;53.104;8.228;2023-04-03T21:45:58;3.20;99.90
3344;DHT22;1685;53.104;8.228;2023-04-03T21:48:26;3.10;99.90
3344;DHT22;1685;53.104;8.228;2023-04-03T21:51:02;3.20;99.90
3344;DHT22;1685;53.104;8.228;2023-04-03T21:56:29;3.10;99.90
3344;DHT22;1685;53.104;8.228;2023-04-03T21:58:57;2.90;99.90
3344;DHT22;1685;53.104;8.228;2023-04-03T22:03:56;2.90;99.90
3344;DHT22;1685;53.104;8.228;2023-04-03T22:06:25;2.90;99.90
3344;DHT22;1685;53.104;8.228;2023-04-03T22:08:52;2.90;99.90
3344;DHT22;1685;53.104;8.228;2023-04-03T22:11:18;3.00;99.90
3344;DHT22;1685;53.104;8.228;2023-04-03T22:13:51;2.80;99.90
3344;DHT22;1685;53.104;8.228;2023-04-03T22:16:18;2.90;99.90
3344;DHT22;1685;53.104;8.228;2023-04-03T22:18:45;2.80;99.90
3344;DHT22;1685;53.104;8.228;2023-04-03T22:21:12;2.80;99.90
3344;DHT22;1685;53.104;8.228;2023-04-03T22:23:40;2.80;99.90
3344;DHT22;1685;53.104;8.228;2023-04-03T22:26:08;2.70;99.90
3344;DHT22;1685;53.104;8.228;2023-04-03T22:28:37;2.80;99.90
3344;DHT22;1685;53.104;8.228;2023-04-03T22:31:06;2.70;99.90
3344;DHT22;1685;53.104;8.228;2023-04-03T22:33:33;2.70;99.90
3344;DHT22;1685;53.104;8.228;2023-04-03T22:36:01;2.60;99.90
3344;DHT22;1685;53.104;8.228;2023-04-03T22:38:28;2.60;99.90
3344;DHT22;1685;53.104;8.228;2023-04-03T22:40:57;2.80;99.90
3344;DHT22;1685;53.104;8.228;2023-04-03T22:43:24;2.60;99.90
3344;DHT22;1685;53.104;8.228;2023-04-03T22:45:52;2.70;99.90
3344;DHT22;1685;53.104;8.228;2023-04-03T22:50:46;2.40;99.90
3344;DHT22;1685;53.104;8.228;2023-04-03T22:59:18;2.30;99.90
3344;DHT22;1685;53.104;8.228;2023-04-03T23:01:45;2.50;99.90
3344;DHT22;1685;53.104;8.228;2023-04-03T23:09:07;2.40;99.90
3344;DHT22;1685;53.104;8.228;2023-04-03T23:11:34;2.20;99.90
3344;DHT22;1685;53.104;8.228;2023-04-03T23:16:29;2.10;99.90
3344;DHT22;1685;53.104;8.228;2023-04-03T23:18:57;1.80;99.90
3344;DHT22;1685;53.104;8.228;2023-04-03T23:21:24;2.20;99.90
3344;DHT22;1685;53.104;8.228;2023-04-03T23:23:50;2.00;99.90
3344;DHT22;1685;53.104;8.228;2023-04-03T23:28:44;2.00;99.90
3344;DHT22;1685;53.104;8.228;2023-04-03T23:31:11;1.70;99.90
3344;DHT22;1685;53.104;8.228;2023-04-03T23:33:39;1.90;99.90
3344;DHT22;1685;53.104;8.228;2023-04-03T23:36:09;1.80;99.90
3344;DHT22;1685;53.104;8.228;2023-04-03T23:38:37;2.00;99.90
3344;DHT22;1685;53.104;8.228;2023-04-03T23:41:04;1.80;99.90
3344;DHT22;1685;53.104;8.228;2023-04-03T23:43:31;1.90;99.90
3344;DHT22;1685;53.104;8.228;2023-04-03T23:45:58;1.80;99.90
3344;DHT22;1685;53.104;8.228;2023-04-03T23:50:53;1.60;99.90
3344;DHT22;1685;53.104;8.228;2023-04-03T23:53:20;1.50;99.90
